createdAt,value
2019-01-19T00:00:44.031Z,19.10
2019-01-19T00:01:44.025Z,20.40
2019-01-19T00:02:44.031Z,21.30
2019-01-19T00:03:44.028Z,21.60
2019-01-19T00:04:44.013Z,21.60
2019-01-19T00:05:44.008Z,20.20
2019-01-19T00:06:44.194Z,20.20
2019-01-19T00:07:43.978Z,21.00
2019-01-19T00:08:43.988Z,20.90
2019-01-19T00:09:44.220Z,20.00
2019-01-19T00:10:43.971Z,21.00
2019-01-19T00:11:43.951Z,20.60
2019-01-19T00:12:43.957Z,21.50
2019-01-19T00:13:43.946Z,20.30
2019-01-19T00:14:44.150Z,22.00
2019-01-19T00:15:44.141Z,21.30
2019-01-19T00:16:43.933Z,21.00
2019-01-19T00:17:44.121Z,22.20
2019-01-19T00:18:43.894Z,21.30
2019-01-19T00:19:44.092Z,20.00
2019-01-19T00:20:43.895Z,21.00
2019-01-19T00:21:43.869Z,20.50
2019-01-19T00:22:43.860Z,20.00
2019-01-19T00:23:43.870Z,20.60
2019-01-19T00:24:43.843Z,21.10
2019-01-19T00:25:44.045Z,21.40
2019-01-19T00:26:43.846Z,20.60
2019-01-19T00:27:43.834Z,20.70
2019-01-19T00:28:43.810Z,20.90
2019-01-19T00:29:44.032Z,21.50
2019-01-19T00:30:43.823Z,20.80
2019-01-19T00:31:43.802Z,19.60
2019-01-19T00:32:43.793Z,20.10
2019-01-19T00:33:43.805Z,20.00
2019-01-19T00:34:44.012Z,21.20
2019-01-19T00:35:43.979Z,19.40
2019-01-19T00:36:43.984Z,21.00
2019-01-19T00:37:43.744Z,20.40
2019-01-19T00:38:43.756Z,19.50
2019-01-19T00:39:43.738Z,20.30
2019-01-19T00:40:43.747Z,20.40
2019-01-19T00:41:43.732Z,19.40
2019-01-19T00:42:43.707Z,19.00
2019-01-19T00:43:43.713Z,19.60
2019-01-19T00:44:43.707Z,19.30
2019-01-19T00:45:43.693Z,19.50
2019-01-19T00:46:43.690Z,19.90
2019-01-19T00:47:43.678Z,20.00
2019-01-19T00:48:43.681Z,20.20
2019-01-19T00:49:43.664Z,20.20
2019-01-19T00:50:43.657Z,19.60
2019-01-19T00:51:43.856Z,19.30
2019-01-19T00:52:43.637Z,19.70
2019-01-19T00:53:43.831Z,19.30
2019-01-19T00:54:43.627Z,18.40
2019-01-19T00:55:43.619Z,18.20
2019-01-19T00:56:43.617Z,19.30
2019-01-19T00:57:43.617Z,19.30
2019-01-19T00:58:43.580Z,19.80
2019-01-19T00:59:43.786Z,20.20
2019-01-19T01:00:43.580Z,18.30
2019-01-19T01:01:43.568Z,19.10
2019-01-19T01:02:43.557Z,19.00
2019-01-19T01:03:43.547Z,18.90
2019-01-19T01:04:43.536Z,19.50
2019-01-19T01:05:43.733Z,19.10
2019-01-19T01:06:43.518Z,19.70
2019-01-19T01:07:43.529Z,20.10
2019-01-19T01:08:43.513Z,19.20
2019-01-19T01:09:43.510Z,18.60
2019-01-19T01:10:43.502Z,19.90
2019-01-19T01:11:43.475Z,18.80
2019-01-19T01:12:43.486Z,19.00
2019-01-19T01:13:43.476Z,18.50
2019-01-19T01:14:43.471Z,19.90
2019-01-19T01:15:43.459Z,19.20
2019-01-19T01:16:43.440Z,18.70
2019-01-19T01:17:43.444Z,18.20
2019-01-19T01:18:43.636Z,18.30
2019-01-19T01:19:43.432Z,17.70
2019-01-19T01:20:43.428Z,18.50
2019-01-19T01:21:43.430Z,17.50
2019-01-19T01:22:43.409Z,19.10
2019-01-19T01:23:43.408Z,18.90
2019-01-19T01:24:43.372Z,18.10
2019-01-19T01:25:43.368Z,18.80
2019-01-19T01:26:43.373Z,19.20
2019-01-19T01:27:43.359Z,18.80
2019-01-19T01:28:43.564Z,19.20
2019-01-19T01:29:43.551Z,18.40
2019-01-19T01:30:43.343Z,19.00
2019-01-19T01:31:43.325Z,19.00
2019-01-19T01:32:43.328Z,19.10
2019-01-19T01:33:43.303Z,18.80
2019-01-19T01:34:43.293Z,18.10
2019-01-19T01:35:43.303Z,17.90
2019-01-19T01:36:43.494Z,18.30
2019-01-19T01:37:43.278Z,18.60
2019-01-19T01:38:43.266Z,18.90
2019-01-19T01:39:43.266Z,18.30
2019-01-19T01:40:43.254Z,19.30
2019-01-19T01:41:43.246Z,18.80
2019-01-19T01:42:43.241Z,18.90
2019-01-19T01:43:43.238Z,18.50
2019-01-19T01:44:43.223Z,18.60
2019-01-19T01:45:43.227Z,18.30
2019-01-19T01:46:43.221Z,17.90
2019-01-19T01:47:43.194Z,18.60
2019-01-19T01:48:43.189Z,19.20
2019-01-19T01:49:43.204Z,17.80
2019-01-19T01:50:43.173Z,18.90
2019-01-19T01:51:43.188Z,18.30
2019-01-19T01:52:43.157Z,17.00
2019-01-19T01:53:43.153Z,18.00
2019-01-19T01:54:43.146Z,17.50
2019-01-19T01:55:43.144Z,18.20
2019-01-19T01:56:43.141Z,17.60
2019-01-19T01:57:43.132Z,17.90
2019-01-19T01:58:43.110Z,16.40
2019-01-19T01:59:43.104Z,14.80
2019-01-19T02:00:43.295Z,15.20
2019-01-19T02:01:43.288Z,15.40
2019-01-19T02:02:43.076Z,15.90
2019-01-19T02:03:43.071Z,15.40
2019-01-19T02:04:43.062Z,14.90
2019-01-19T02:05:43.069Z,15.40
2019-01-19T02:06:43.050Z,15.10
2019-01-19T02:07:43.050Z,15.60
2019-01-19T02:08:43.062Z,14.40
2019-01-19T02:09:43.222Z,15.00
2019-01-19T02:10:43.043Z,15.10
2019-01-19T02:11:43.033Z,15.10
2019-01-19T02:12:43.016Z,14.70
2019-01-19T02:13:42.998Z,15.60
2019-01-19T02:14:42.986Z,15.70
2019-01-19T02:15:42.986Z,14.70
2019-01-19T02:16:42.982Z,14.80
2019-01-19T02:17:42.969Z,14.60
2019-01-19T02:18:42.958Z,14.20
2019-01-19T02:19:42.946Z,14.30
2019-01-19T02:20:42.940Z,15.20
2019-01-19T02:21:43.154Z,14.90
2019-01-19T02:22:42.944Z,14.80
2019-01-19T02:23:42.915Z,14.90
2019-01-19T02:24:42.927Z,15.10
2019-01-19T02:25:43.110Z,14.80
2019-01-19T02:26:42.900Z,14.80
2019-01-19T02:27:42.890Z,14.70
2019-01-19T02:28:42.899Z,13.70
2019-01-19T02:29:42.869Z,15.20
2019-01-19T02:30:42.874Z,14.70
2019-01-19T02:31:42.853Z,14.10
2019-01-19T02:32:43.060Z,14.30
2019-01-19T02:33:42.833Z,14.30
2019-01-19T02:34:42.822Z,14.00
2019-01-19T02:35:48.317Z,14.20
2019-01-19T02:36:42.810Z,14.10
2019-01-19T02:37:42.806Z,14.70
2019-01-19T02:38:43.008Z,15.30
2019-01-19T02:39:42.779Z,14.10
2019-01-19T02:40:42.793Z,13.80
2019-01-19T02:41:42.780Z,14.40
2019-01-19T02:42:42.793Z,14.20
2019-01-19T02:43:42.769Z,13.50
2019-01-19T02:44:42.744Z,13.20
2019-01-19T02:45:42.934Z,13.60
2019-01-19T02:46:42.723Z,13.70
2019-01-19T02:47:42.722Z,13.50
2019-01-19T02:48:42.724Z,13.20
2019-01-19T02:49:42.698Z,14.40
2019-01-19T02:50:42.700Z,14.80
2019-01-19T02:51:42.704Z,14.30
2019-01-19T02:52:42.677Z,14.80
2019-01-19T02:53:42.671Z,12.50
2019-01-19T02:54:42.868Z,13.30
2019-01-19T02:55:42.859Z,13.70
2019-01-19T02:56:42.668Z,13.70
2019-01-19T02:57:42.648Z,13.20
2019-01-19T02:58:42.648Z,13.40
2019-01-19T02:59:42.623Z,14.10
2019-01-19T03:00:42.819Z,13.60
2019-01-19T03:01:42.612Z,13.80
2019-01-19T03:02:42.603Z,14.10
2019-01-19T03:03:42.615Z,14.00
2019-01-19T03:04:42.790Z,14.40
2019-01-19T03:05:42.589Z,13.40
2019-01-19T03:06:42.782Z,14.10
2019-01-19T03:07:42.559Z,14.00
2019-01-19T03:08:42.746Z,13.80
2019-01-19T03:09:42.541Z,14.10
2019-01-19T03:10:42.546Z,13.50
2019-01-19T03:11:42.525Z,14.20
2019-01-19T03:12:42.512Z,14.40
2019-01-19T03:13:42.515Z,13.30
2019-01-19T03:14:42.507Z,14.50
2019-01-19T03:15:42.490Z,14.10
2019-01-19T03:16:42.484Z,14.10
2019-01-19T03:17:42.488Z,13.50
2019-01-19T03:18:42.478Z,14.00
2019-01-19T03:19:42.458Z,14.30
2019-01-19T03:20:42.463Z,14.30
2019-01-19T03:21:42.648Z,13.60
2019-01-19T03:22:42.441Z,13.20
2019-01-19T03:23:42.443Z,13.70
2019-01-19T03:24:42.618Z,13.10
2019-01-19T03:25:42.410Z,13.40
2019-01-19T03:26:42.402Z,13.50
2019-01-19T03:27:42.603Z,13.20
2019-01-19T03:28:42.396Z,13.60
2019-01-19T03:29:42.376Z,12.50
2019-01-19T03:30:42.378Z,12.10
2019-01-19T03:31:42.357Z,11.50
2019-01-19T03:32:42.362Z,11.70
2019-01-19T03:33:42.344Z,11.10
2019-01-19T03:34:42.348Z,11.70
2019-01-19T03:35:42.329Z,10.90
2019-01-19T03:36:42.313Z,10.50
2019-01-19T03:37:42.332Z,10.00
2019-01-19T03:38:42.510Z,10.30
2019-01-19T03:39:42.307Z,10.60
2019-01-19T03:40:42.291Z,9.40
2019-01-19T03:41:42.284Z,9.40
2019-01-19T03:42:42.291Z,9.50
2019-01-19T03:43:42.264Z,9.60
2019-01-19T03:44:42.268Z,9.70
2019-01-19T03:45:42.262Z,9.00
2019-01-19T03:46:42.238Z,9.90
2019-01-19T03:47:42.243Z,9.30
2019-01-19T03:48:42.221Z,8.60
2019-01-19T03:49:42.231Z,9.30
2019-01-19T03:50:42.218Z,8.80
2019-01-19T03:51:42.206Z,8.60
2019-01-19T03:52:42.198Z,8.90
2019-01-19T03:53:42.396Z,7.70
2019-01-19T03:54:42.184Z,8.80
2019-01-19T03:55:42.377Z,9.10
2019-01-19T03:56:42.173Z,9.60
2019-01-19T03:57:42.148Z,9.10
2019-01-19T03:58:42.141Z,8.90
2019-01-19T03:59:42.143Z,10.20
2019-01-19T04:00:42.140Z,10.10
2019-01-19T04:01:42.319Z,9.50
2019-01-19T04:02:42.329Z,9.80
2019-01-19T04:03:42.304Z,9.90
2019-01-19T04:04:42.098Z,9.00
2019-01-19T04:05:42.087Z,9.30
2019-01-19T04:06:42.299Z,9.40
2019-01-19T04:07:42.075Z,9.40
2019-01-19T04:08:42.269Z,9.60
2019-01-19T04:09:42.068Z,8.70
2019-01-19T04:10:42.263Z,9.10
2019-01-19T04:11:42.053Z,8.70
2019-01-19T04:12:42.242Z,9.40
2019-01-19T04:13:42.025Z,8.90
2019-01-19T04:14:42.018Z,9.40
2019-01-19T04:15:42.011Z,9.80
2019-01-19T04:16:42.015Z,9.20
2019-01-19T04:17:42.217Z,9.10
2019-01-19T04:18:41.987Z,9.20
2019-01-19T04:19:41.999Z,9.00
2019-01-19T04:20:41.982Z,8.50
2019-01-19T04:21:42.172Z,9.30
2019-01-19T04:22:42.177Z,9.50
2019-01-19T04:23:41.952Z,8.90
2019-01-19T04:24:42.171Z,9.40
2019-01-19T04:25:41.969Z,9.10
2019-01-19T04:26:41.924Z,9.10
2019-01-19T04:27:42.144Z,9.20
2019-01-19T04:28:42.121Z,8.30
2019-01-19T04:29:41.901Z,9.20
2019-01-19T04:30:42.092Z,8.50
2019-01-19T04:31:41.942Z,9.10
2019-01-19T04:32:41.882Z,9.00
2019-01-19T04:33:41.885Z,8.00
2019-01-19T04:34:41.878Z,9.10
2019-01-19T04:35:41.870Z,8.80
2019-01-19T04:36:41.922Z,8.40
2019-01-19T04:37:41.849Z,8.20
2019-01-19T04:38:41.859Z,8.50
2019-01-19T04:39:41.825Z,8.20
2019-01-19T04:40:41.819Z,8.40
2019-01-19T04:41:41.815Z,8.50
2019-01-19T04:42:41.817Z,8.80
2019-01-19T04:43:41.788Z,7.80
2019-01-19T04:44:41.995Z,8.50
2019-01-19T04:45:41.780Z,8.30
2019-01-19T04:46:41.788Z,8.10
2019-01-19T04:47:41.766Z,8.30
2019-01-19T04:48:41.758Z,8.10
2019-01-19T04:49:41.949Z,8.10
2019-01-19T04:50:41.732Z,8.10
2019-01-19T04:51:41.732Z,8.10
2019-01-19T04:52:41.715Z,8.80
2019-01-19T04:53:41.706Z,8.20
2019-01-19T04:54:41.705Z,8.50
2019-01-19T04:55:41.723Z,8.30
2019-01-19T04:56:41.699Z,8.10
2019-01-19T04:57:41.695Z,8.10
2019-01-19T04:58:41.670Z,7.30
2019-01-19T04:59:41.705Z,8.50
2019-01-19T05:00:41.864Z,7.90
2019-01-19T05:01:41.645Z,7.80
2019-01-19T05:02:41.878Z,8.00
2019-01-19T05:03:41.848Z,7.60
2019-01-19T05:04:41.623Z,8.20
2019-01-19T05:05:41.613Z,7.60
2019-01-19T05:06:41.611Z,7.70
2019-01-19T05:07:41.597Z,7.90
2019-01-19T05:08:41.604Z,8.20
2019-01-19T05:09:41.577Z,7.60
2019-01-19T05:10:41.585Z,8.20
2019-01-19T05:11:41.570Z,7.60
2019-01-19T05:12:41.561Z,8.00
2019-01-19T05:13:41.566Z,7.80
2019-01-19T05:14:41.548Z,7.40
2019-01-19T05:15:41.551Z,8.10
2019-01-19T05:16:41.535Z,7.50
2019-01-19T05:17:41.538Z,7.10
2019-01-19T05:18:41.511Z,7.70
2019-01-19T05:19:41.508Z,6.90
2019-01-19T05:20:41.520Z,7.40
2019-01-19T05:21:41.504Z,7.90
2019-01-19T05:22:41.480Z,7.90
2019-01-19T05:23:41.470Z,8.00
2019-01-19T05:24:41.482Z,7.30
2019-01-19T05:25:41.478Z,7.10
2019-01-19T05:26:41.455Z,6.80
2019-01-19T05:27:41.657Z,7.40
2019-01-19T05:28:41.444Z,7.70
2019-01-19T05:29:41.438Z,7.00
2019-01-19T05:30:41.652Z,8.00
2019-01-19T05:31:41.421Z,7.50
2019-01-19T05:32:41.408Z,7.60
2019-01-19T05:33:41.391Z,7.30
2019-01-19T05:34:41.405Z,7.30
2019-01-19T05:35:41.376Z,7.20
2019-01-19T05:36:41.373Z,7.30
2019-01-19T05:37:41.358Z,7.00
2019-01-19T05:38:41.374Z,7.30
2019-01-19T05:39:41.349Z,7.10
2019-01-19T05:40:41.334Z,7.40
2019-01-19T05:41:41.546Z,7.20
2019-01-19T05:42:41.325Z,7.50
2019-01-19T05:43:41.316Z,7.70
2019-01-19T05:44:41.321Z,8.20
2019-01-19T05:45:41.501Z,7.50
2019-01-19T05:46:41.519Z,8.00
2019-01-19T05:47:41.289Z,8.00
2019-01-19T05:48:41.287Z,7.40
2019-01-19T05:49:41.465Z,7.70
2019-01-19T05:50:41.272Z,7.50
2019-01-19T05:51:41.460Z,7.60
2019-01-19T05:52:41.239Z,7.80
2019-01-19T05:53:41.259Z,8.10
2019-01-19T05:54:41.431Z,7.70
2019-01-19T05:55:41.418Z,8.80
2019-01-19T05:56:41.207Z,8.60
2019-01-19T05:57:41.200Z,7.50
2019-01-19T05:58:41.216Z,7.90
2019-01-19T05:59:41.191Z,7.00
2019-01-19T06:00:41.175Z,8.60
2019-01-19T06:01:41.167Z,7.60
2019-01-19T06:02:41.154Z,7.70
2019-01-19T06:03:41.158Z,7.40
2019-01-19T06:04:41.140Z,7.60
2019-01-19T06:05:41.352Z,7.90
2019-01-19T06:06:46.723Z,8.20
2019-01-19T06:07:41.713Z,7.90
2019-01-19T06:08:41.108Z,7.40
2019-01-19T06:09:41.106Z,7.50
2019-01-19T06:10:41.106Z,7.40
2019-01-19T06:11:41.086Z,7.90
2019-01-19T06:12:41.281Z,7.20
2019-01-19T06:13:41.089Z,7.10
2019-01-19T06:14:41.263Z,7.00
2019-01-19T06:15:41.089Z,7.10
2019-01-19T06:16:41.054Z,7.00
2019-01-19T06:17:41.041Z,7.20
2019-01-19T06:18:41.026Z,7.10
2019-01-19T06:19:41.023Z,6.90
2019-01-19T06:20:41.029Z,6.60
2019-01-19T06:21:41.006Z,6.40
2019-01-19T06:22:41.193Z,6.50
2019-01-19T06:23:40.994Z,6.90
2019-01-19T06:24:40.973Z,7.10
2019-01-19T06:25:40.971Z,7.30
2019-01-19T06:26:40.962Z,6.90
2019-01-19T06:27:41.160Z,6.50
2019-01-19T06:28:41.149Z,7.00
2019-01-19T06:29:40.934Z,6.90
2019-01-19T06:30:40.926Z,6.60
2019-01-19T06:31:41.131Z,7.50
2019-01-19T06:32:40.917Z,7.00
2019-01-19T06:33:40.906Z,6.70
2019-01-19T06:34:40.890Z,7.50
2019-01-19T06:35:40.886Z,6.50
2019-01-19T06:36:40.876Z,6.20
2019-01-19T06:37:40.869Z,6.50
2019-01-19T06:38:40.866Z,7.30
2019-01-19T06:39:40.861Z,6.90
2019-01-19T06:40:40.844Z,6.90
2019-01-19T06:41:40.834Z,7.50
2019-01-19T06:42:40.844Z,7.40
2019-01-19T06:43:40.816Z,7.10
2019-01-19T06:44:40.817Z,7.70
2019-01-19T06:45:40.808Z,7.80
2019-01-19T06:46:40.794Z,8.50
2019-01-19T06:47:40.790Z,8.00
2019-01-19T06:48:40.785Z,6.70
2019-01-19T06:49:40.982Z,7.50
2019-01-19T06:50:40.766Z,7.70
2019-01-19T06:51:40.759Z,8.20
2019-01-19T06:52:40.740Z,7.50
2019-01-19T06:53:40.741Z,7.50
2019-01-19T06:54:40.733Z,7.30
2019-01-19T06:55:40.713Z,7.10
2019-01-19T06:56:40.713Z,7.40
2019-01-19T06:57:40.700Z,7.50
2019-01-19T06:58:40.701Z,7.60
2019-01-19T06:59:40.693Z,7.50
2019-01-19T07:00:40.682Z,6.90
2019-01-19T07:01:40.674Z,8.00
2019-01-19T07:02:40.665Z,7.10
2019-01-19T07:03:40.849Z,7.60
2019-01-19T07:04:40.641Z,7.00
2019-01-19T07:05:40.637Z,7.40
2019-01-19T07:06:40.625Z,7.60
2019-01-19T07:07:40.614Z,8.00
2019-01-19T07:08:40.622Z,8.10
2019-01-19T07:09:40.620Z,7.90
2019-01-19T07:10:40.607Z,8.80
2019-01-19T07:12:40.773Z,7.30
2019-01-19T07:13:40.564Z,7.40
2019-01-19T07:14:40.559Z,7.60
2019-01-19T07:15:40.555Z,8.00
2019-01-19T07:16:40.544Z,7.70
2019-01-19T07:17:40.546Z,7.80
2019-01-19T07:18:40.528Z,7.60
2019-01-19T07:19:40.525Z,7.30
2019-01-19T07:20:40.508Z,7.00
2019-01-19T07:21:40.512Z,6.90
2019-01-19T07:22:40.499Z,7.70
2019-01-19T07:23:40.478Z,6.80
2019-01-19T07:24:40.464Z,7.40
2019-01-19T07:25:40.668Z,7.30
2019-01-19T07:26:40.664Z,7.40
2019-01-19T07:27:40.452Z,7.40
2019-01-19T07:28:40.648Z,7.20
2019-01-19T07:29:40.425Z,7.20
2019-01-19T07:30:40.431Z,7.00
2019-01-19T07:31:40.605Z,7.20
2019-01-19T07:32:40.616Z,7.30
2019-01-19T07:33:40.396Z,7.30
2019-01-19T07:34:40.400Z,7.00
2019-01-19T07:35:40.392Z,7.00
2019-01-19T07:36:40.589Z,8.10
2019-01-19T07:37:40.561Z,7.20
2019-01-19T07:38:40.348Z,7.30
2019-01-19T07:39:40.351Z,7.30
2019-01-19T07:40:40.338Z,7.70
2019-01-19T07:41:40.325Z,7.20
2019-01-19T07:42:40.315Z,7.50
2019-01-19T07:43:40.309Z,7.40
2019-01-19T07:44:40.298Z,7.50
2019-01-19T07:45:40.289Z,7.20
2019-01-19T07:46:40.294Z,8.00
2019-01-19T07:47:40.277Z,7.70
2019-01-19T07:48:40.276Z,8.70
2019-01-19T07:49:40.254Z,7.70
2019-01-19T07:50:40.240Z,8.00
2019-01-19T07:51:40.236Z,7.60
2019-01-19T07:52:40.238Z,7.40
2019-01-19T07:53:40.421Z,7.60
2019-01-19T07:54:40.409Z,7.70
2019-01-19T07:55:40.204Z,7.50
2019-01-19T07:56:40.187Z,7.40
2019-01-19T07:57:40.182Z,7.60
2019-01-19T07:58:40.174Z,7.00
2019-01-19T07:59:40.179Z,7.80
2019-01-19T08:00:40.162Z,8.20
2019-01-19T08:01:40.145Z,7.60
2019-01-19T08:02:40.143Z,8.10
2019-01-19T08:03:40.140Z,8.00
2019-01-19T08:04:40.339Z,7.70
2019-01-19T08:05:40.113Z,7.40
2019-01-19T08:06:40.107Z,7.80
2019-01-19T08:07:40.093Z,8.00
2019-01-19T08:08:40.102Z,8.00
2019-01-19T08:09:40.096Z,7.50
2019-01-19T08:10:40.078Z,7.90
2019-01-19T08:11:40.279Z,7.90
2019-01-19T08:12:40.066Z,7.90
2019-01-19T08:13:40.260Z,7.60
2019-01-19T08:14:40.036Z,7.80
2019-01-19T08:15:40.030Z,8.00
2019-01-19T08:16:40.015Z,8.60
2019-01-19T08:17:40.019Z,8.60
2019-01-19T08:18:40.013Z,8.10
2019-01-19T08:19:39.995Z,8.30
2019-01-19T08:20:39.999Z,7.70
2019-01-19T08:21:39.983Z,7.60
2019-01-19T08:22:39.995Z,7.60
2019-01-19T08:23:39.983Z,7.80
2019-01-19T08:24:39.956Z,6.70
2019-01-19T08:25:39.959Z,7.20
2019-01-19T08:26:39.949Z,6.70
2019-01-19T08:27:39.927Z,7.00
2019-01-19T08:28:39.926Z,6.80
2019-01-19T08:29:39.926Z,7.00
2019-01-19T08:30:39.919Z,6.80
2019-01-19T08:31:39.895Z,7.10
2019-01-19T08:32:39.902Z,6.60
2019-01-19T08:33:39.898Z,6.30
2019-01-19T08:34:39.884Z,6.60
2019-01-19T08:35:39.870Z,6.00
2019-01-19T08:36:39.863Z,6.00
2019-01-19T08:37:39.856Z,6.40
2019-01-19T08:38:39.841Z,5.80
2019-01-19T08:39:39.832Z,5.80
2019-01-19T08:40:39.826Z,5.60
2019-01-19T08:41:39.815Z,6.00
2019-01-19T08:42:39.823Z,5.70
2019-01-19T08:43:39.815Z,5.30
2019-01-19T08:44:40.003Z,5.60
2019-01-19T08:45:39.785Z,5.10
2019-01-19T08:46:39.786Z,5.80
2019-01-19T08:47:39.762Z,5.50
2019-01-19T08:48:39.750Z,5.30
2019-01-19T08:49:39.759Z,5.10
2019-01-19T08:50:39.752Z,5.30
2019-01-19T08:51:39.744Z,5.90
2019-01-19T08:52:39.743Z,5.00
2019-01-19T08:53:39.713Z,4.90
2019-01-19T08:54:39.702Z,5.30
2019-01-19T08:55:39.703Z,4.50
2019-01-19T08:56:39.696Z,4.40
2019-01-19T08:57:39.691Z,4.60
2019-01-19T08:58:39.704Z,4.40
2019-01-19T08:59:39.662Z,4.90
2019-01-19T09:00:39.874Z,4.80
2019-01-19T09:01:39.663Z,4.60
2019-01-19T09:02:39.642Z,5.10
2019-01-19T09:03:39.836Z,5.00
2019-01-19T09:04:39.627Z,5.20
2019-01-19T09:05:39.625Z,4.60
2019-01-19T09:06:39.606Z,5.20
2019-01-19T09:07:39.617Z,4.50
2019-01-19T09:08:39.592Z,5.20
2019-01-19T09:09:39.816Z,4.80
2019-01-19T09:10:39.591Z,5.10
2019-01-19T09:11:39.573Z,5.10
2019-01-19T09:12:39.564Z,4.90
2019-01-19T09:13:39.568Z,5.70
2019-01-19T09:14:39.559Z,4.80
2019-01-19T09:15:39.751Z,5.20
2019-01-19T09:16:41.656Z,5.20
2019-01-19T09:17:39.520Z,5.00
2019-01-19T09:18:39.516Z,4.90
2019-01-19T09:19:39.514Z,5.80
2019-01-19T09:20:39.707Z,5.00
2019-01-19T09:21:39.493Z,5.30
2019-01-19T09:22:39.507Z,4.80
2019-01-19T09:23:39.477Z,4.60
2019-01-19T09:24:39.701Z,5.40
2019-01-19T09:25:39.465Z,4.80
2019-01-19T09:26:39.451Z,4.90
2019-01-19T09:27:39.450Z,5.20
2019-01-19T09:28:39.443Z,5.90
2019-01-19T09:29:39.424Z,4.80
2019-01-19T09:30:39.442Z,5.20
2019-01-19T09:31:39.412Z,5.00
2019-01-19T09:32:39.417Z,4.80
2019-01-19T09:33:39.409Z,5.40
2019-01-19T09:34:39.393Z,4.80
2019-01-19T09:35:39.386Z,4.10
2019-01-19T09:36:39.584Z,5.30
2019-01-19T09:37:40.886Z,5.20
2019-01-19T09:38:39.363Z,5.40
2019-01-19T09:39:39.359Z,5.40
2019-01-19T09:40:39.342Z,5.10
2019-01-19T09:41:39.553Z,5.20
2019-01-19T09:42:39.332Z,4.70
2019-01-19T09:43:39.343Z,4.40
2019-01-19T09:44:39.323Z,4.60
2019-01-19T09:45:39.302Z,4.10
2019-01-19T09:46:39.513Z,4.50
2019-01-19T09:47:39.301Z,4.60
2019-01-19T09:48:39.492Z,4.70
2019-01-19T09:49:39.280Z,5.00
2019-01-19T09:50:39.320Z,4.70
2019-01-19T09:51:39.261Z,4.70
2019-01-19T09:52:39.259Z,5.20
2019-01-19T09:53:39.267Z,4.40
2019-01-19T09:54:39.238Z,4.60
2019-01-19T09:55:39.244Z,4.70
2019-01-19T09:56:39.223Z,4.50
2019-01-19T09:57:39.220Z,5.00
2019-01-19T09:58:39.214Z,3.90
2019-01-19T09:59:39.214Z,5.00
2019-01-19T10:00:45.489Z,4.80
2019-01-19T10:01:39.200Z,4.80
2019-01-19T10:02:39.202Z,4.70
2019-01-19T10:03:39.168Z,4.80
2019-01-19T10:04:39.364Z,5.00
2019-01-19T10:05:39.370Z,5.10
2019-01-19T10:06:39.156Z,4.60
2019-01-19T10:07:39.146Z,5.30
2019-01-19T10:08:39.134Z,4.80
2019-01-19T10:09:39.134Z,4.70
2019-01-19T10:10:39.334Z,5.00
2019-01-19T10:11:39.113Z,4.70
2019-01-19T10:12:39.100Z,5.40
2019-01-19T10:13:39.096Z,4.80
2019-01-19T10:14:39.637Z,5.10
2019-01-19T10:15:39.108Z,5.00
2019-01-19T10:16:39.082Z,4.90
2019-01-19T10:17:39.082Z,5.00
2019-01-19T10:18:39.063Z,4.60
2019-01-19T10:19:39.059Z,4.70
2019-01-19T10:20:39.249Z,5.00
2019-01-19T10:21:39.040Z,5.30
2019-01-19T10:22:39.044Z,4.60
2019-01-19T10:23:39.039Z,4.80
2019-01-19T10:24:39.029Z,4.60
2019-01-19T10:25:39.011Z,4.50
2019-01-19T10:26:39.003Z,4.60
2019-01-19T10:27:38.999Z,4.80
2019-01-19T10:28:38.998Z,4.90
2019-01-19T10:29:38.988Z,4.40
2019-01-19T10:30:38.996Z,4.60
2019-01-19T10:31:38.968Z,4.40
2019-01-19T10:32:38.955Z,4.60
2019-01-19T10:33:38.960Z,5.00
2019-01-19T10:34:38.960Z,4.80
2019-01-19T10:35:38.947Z,4.50
2019-01-19T10:36:38.942Z,4.70
2019-01-19T10:37:38.938Z,4.70
2019-01-19T10:38:40.672Z,4.50
2019-01-19T10:39:38.917Z,4.90
2019-01-19T10:40:38.907Z,4.80
2019-01-19T10:41:41.122Z,5.00
2019-01-19T10:42:38.890Z,4.70
2019-01-19T10:43:38.937Z,4.70
2019-01-19T10:44:39.083Z,4.80
2019-01-19T10:45:38.862Z,4.50
2019-01-19T10:46:38.869Z,4.40
2019-01-19T10:47:38.875Z,4.10
2019-01-19T10:48:38.842Z,4.30
2019-01-19T10:49:38.826Z,4.50
2019-01-19T10:50:39.044Z,4.50
2019-01-19T10:51:39.036Z,4.90
2019-01-19T10:52:38.803Z,4.60
2019-01-19T10:53:38.802Z,4.00
2019-01-19T10:54:38.804Z,4.30
2019-01-19T10:55:38.797Z,4.30
2019-01-19T10:56:39.012Z,4.00
2019-01-19T10:57:38.769Z,3.90
2019-01-19T10:58:38.765Z,3.60
2019-01-19T10:59:38.970Z,4.00
2019-01-19T11:00:38.971Z,4.30
2019-01-19T11:01:38.749Z,4.00
2019-01-19T11:02:38.747Z,4.20
2019-01-19T11:03:38.741Z,4.20
2019-01-19T11:04:38.970Z,3.70
2019-01-19T11:05:38.745Z,3.70
2019-01-19T11:06:38.713Z,3.40
2019-01-19T11:07:38.714Z,4.30
2019-01-19T11:08:38.703Z,3.90
2019-01-19T11:09:38.889Z,3.90
2019-01-19T11:10:38.682Z,4.10
2019-01-19T11:11:38.677Z,4.00
2019-01-19T11:12:38.665Z,4.20
2019-01-19T11:13:38.663Z,4.00
2019-01-19T11:14:38.661Z,4.70
2019-01-19T11:15:38.653Z,4.00
2019-01-19T11:16:38.640Z,4.00
2019-01-19T11:17:38.638Z,4.10
2019-01-19T11:18:38.627Z,4.30
2019-01-19T11:19:38.847Z,3.70
2019-01-19T11:20:38.613Z,3.80
2019-01-19T11:21:38.662Z,3.40
2019-01-19T11:22:38.600Z,3.70
2019-01-19T11:23:39.889Z,3.60
2019-01-19T11:24:38.586Z,3.60
2019-01-19T11:25:38.592Z,3.90
2019-01-19T11:26:38.564Z,3.30
2019-01-19T11:27:38.764Z,3.50
2019-01-19T11:28:38.558Z,3.50
2019-01-19T11:29:38.573Z,3.40
2019-01-19T11:30:38.541Z,4.00
2019-01-19T11:31:38.534Z,3.90
2019-01-19T11:32:44.425Z,3.20
2019-01-19T11:33:38.525Z,3.30
2019-01-19T11:34:38.513Z,3.50
2019-01-19T11:35:38.511Z,3.80
2019-01-19T11:36:38.715Z,4.10
2019-01-19T11:37:38.492Z,3.80
2019-01-19T11:38:38.686Z,3.70
2019-01-19T11:39:38.491Z,3.30
2019-01-19T11:40:38.474Z,3.40
2019-01-19T11:41:38.459Z,3.50
2019-01-19T11:42:38.656Z,3.70
2019-01-19T11:43:38.659Z,3.70
2019-01-19T11:44:38.446Z,3.70
2019-01-19T11:45:38.447Z,3.40
2019-01-19T11:46:38.444Z,3.50
2019-01-19T11:47:38.426Z,3.20
2019-01-19T11:48:38.625Z,3.30
2019-01-19T11:49:38.411Z,3.40
2019-01-19T11:50:38.417Z,3.50
2019-01-19T11:51:38.398Z,3.60
2019-01-19T11:52:38.383Z,3.70
2019-01-19T11:53:38.387Z,3.70
2019-01-19T11:54:38.591Z,3.50
2019-01-19T11:55:38.365Z,3.20
2019-01-19T11:56:38.380Z,3.00
2019-01-19T11:57:38.356Z,3.00
2019-01-19T11:58:38.356Z,3.20
2019-01-19T11:59:38.347Z,2.50
2019-01-19T12:00:38.330Z,2.90
2019-01-19T12:01:38.343Z,2.90
2019-01-19T12:02:38.388Z,2.80
2019-01-19T12:03:38.587Z,3.10
2019-01-19T12:04:38.314Z,3.00
2019-01-19T12:05:38.521Z,3.20
2019-01-19T12:06:38.294Z,3.20
2019-01-19T12:07:38.295Z,3.00
2019-01-19T12:08:38.293Z,2.70
2019-01-19T12:09:38.281Z,3.30
2019-01-19T12:10:38.472Z,2.60
2019-01-19T12:11:38.463Z,2.80
2019-01-19T12:12:38.279Z,3.00
2019-01-19T12:13:38.242Z,2.90
2019-01-19T12:14:38.237Z,2.70
2019-01-19T12:15:38.237Z,2.70
2019-01-19T12:16:38.234Z,3.40
2019-01-19T12:17:38.241Z,3.00
2019-01-19T12:18:38.245Z,3.30
2019-01-19T12:19:38.209Z,3.00
2019-01-19T12:20:38.422Z,2.90
2019-01-19T12:21:38.204Z,2.80
2019-01-19T12:22:38.403Z,3.20
2019-01-19T12:23:38.182Z,2.60
2019-01-19T12:24:38.189Z,3.10
2019-01-19T12:25:38.370Z,2.90
2019-01-19T12:26:38.388Z,3.00
2019-01-19T12:27:38.156Z,3.20
2019-01-19T12:28:38.344Z,3.30
2019-01-19T12:29:38.155Z,3.20
2019-01-19T12:30:38.131Z,3.10
2019-01-19T12:31:38.137Z,3.30
2019-01-19T12:32:38.132Z,3.20
2019-01-19T12:33:38.127Z,3.00
2019-01-19T12:34:38.132Z,2.90
2019-01-19T12:35:38.322Z,2.90
2019-01-19T12:36:38.093Z,3.00
2019-01-19T12:37:38.289Z,2.80
2019-01-19T12:38:38.103Z,3.10
2019-01-19T12:39:38.078Z,3.10
2019-01-19T12:40:38.066Z,3.20
2019-01-19T12:41:38.290Z,3.10
2019-01-19T12:42:38.062Z,3.30
2019-01-19T12:43:38.252Z,3.50
2019-01-19T12:44:38.043Z,3.40
2019-01-19T12:45:38.241Z,3.20
2019-01-19T12:46:38.021Z,3.10
2019-01-19T12:47:38.233Z,3.50
2019-01-19T12:48:38.204Z,3.00
2019-01-19T12:49:38.013Z,3.40
2019-01-19T12:50:38.010Z,3.00
2019-01-19T12:51:38.204Z,2.90
2019-01-19T12:52:37.972Z,3.10
2019-01-19T12:53:37.972Z,2.90
2019-01-19T12:54:37.968Z,3.00
2019-01-19T12:55:37.975Z,3.00
2019-01-19T12:56:38.152Z,3.00
2019-01-19T12:57:37.945Z,2.80
2019-01-19T12:58:37.949Z,3.00
2019-01-19T12:59:37.941Z,3.00
2019-01-19T13:00:38.128Z,2.70
2019-01-19T13:01:37.918Z,3.00
2019-01-19T13:02:37.903Z,2.90
2019-01-19T13:03:37.899Z,3.30
2019-01-19T13:04:38.098Z,2.90
2019-01-19T13:05:37.893Z,3.00
2019-01-19T13:06:37.881Z,3.00
2019-01-19T13:07:37.875Z,3.10
2019-01-19T13:08:37.879Z,2.80
2019-01-19T13:09:37.860Z,3.10
2019-01-19T13:10:37.880Z,2.90
2019-01-19T13:11:38.057Z,3.30
2019-01-19T13:12:38.049Z,3.50